Time;durP1;ratioP1;P1;durP2;ratioP2;P2;SDS_P1;SDS_P2;PMS_P1;PMS_P2;Temp;Humidity;BMP_temperature;BMP_pressure;BME280_temperature;BME280_humidity;BME280_pressure;Samples;Min_cycle;Max_cycle;Signal;HPM_P1;HPM_P2
2022/12/06 00:07:56;;;;;;;0.20;0.10;;;9.60;99.90;;;;;;21305652;27;20397;-69
2022/12/06 00:18:00;;;;;;;0.20;0.10;;;9.60;99.90;;;;;;21304551;27;20418;-69
2022/12/06 00:28:05;;;;;;;0.20;0.10;;;9.50;99.90;;;;;;21287057;27;20389;-68
2022/12/06 00:38:09;;;;;;;0.20;0.10;;;9.50;99.90;;;;;;21286462;27;20884;-68
2022/12/06 00:48:14;;;;;;;0.20;0.10;;;9.60;99.90;;;;;;21284305;27;20390;-67
2022/12/06 00:58:18;;;;;;;0.20;0.10;;;9.70;99.90;;;;;;21304549;28;20405;-68
2022/12/06 01:08:24;;;;;;;0.20;0.10;;;9.70;99.90;;;;;;21302598;28;20473;-69
2022/12/06 01:18:27;;;;;;;0.20;0.10;;;9.70;99.90;;;;;;21302551;28;20401;-68
2022/12/06 01:28:33;;;;;;;0.20;0.10;;;9.60;99.90;;;;;;21303156;28;20477;-68
2022/12/06 01:38:37;;;;;;;0.20;0.10;;;9.60;99.90;;;;;;21238907;28;20425;-67
2022/12/06 01:48:42;;;;;;;0.20;0.10;;;9.50;99.90;;;;;;21216081;28;20399;-67
2022/12/06 01:58:48;;;;;;;0.20;0.10;;;9.50;99.90;;;;;;21210178;28;20412;-68
2022/12/06 02:08:54;;;;;;;0.20;0.05;;;9.40;99.90;;;;;;21232106;28;20394;-67
2022/12/06 02:19:09;;;;;;;0.20;0.10;;;9.40;99.90;;;;;;21229791;28;20403;-67
2022/12/06 02:29:52;;;;;;;0.20;0.00;;;9.50;99.90;;;;;;21221736;27;20405;-68
2022/12/06 02:40:03;;;;;;;0.20;0.10;;;9.50;99.90;;;;;;21312937;27;20409;-68
2022/12/06 02:50:11;;;;;;;0.20;0.10;;;9.50;99.90;;;;;;21312481;27;20397;-68
2022/12/06 03:00:35;;;;;;;0.20;0.10;;;9.50;99.90;;;;;;21311088;27;20408;-66
2022/12/06 03:10:46;;;;;;;0.20;0.10;;;9.40;99.90;;;;;;21291739;27;20397;-67
2022/12/06 03:20:54;;;;;;;0.20;0.10;;;9.40;99.90;;;;;;21309722;27;20396;-67
2022/12/06 03:31:02;;;;;;;0.20;0.10;;;9.70;99.90;;;;;;21310118;27;20404;-68
2022/12/06 03:41:09;;;;;;;0.20;0.00;;;9.90;99.90;;;;;;21223938;27;20476;-67
2022/12/06 03:51:18;;;;;;;0.20;0.07;;;10.20;99.90;;;;;;21214868;28;20406;-67
2022/12/06 04:01:23;;;;;;;0.20;0.10;;;10.40;99.90;;;;;;21214964;28;20411;-68
2022/12/06 04:11:27;;;;;;;0.20;0.10;;;10.10;99.90;;;;;;21213540;28;20395;-68
2022/12/06 04:52:37;;;;;;;0.20;0.10;;;10.10;99.90;;;;;;21128452;28;20402;-67
2022/12/06 05:02:42;;;;;;;0.20;0.10;;;10.00;99.90;;;;;;21209528;28;20413;-68
2022/12/06 05:12:46;;;;;;;0.20;0.10;;;10.10;99.90;;;;;;21209271;28;20390;-68
2022/12/06 05:22:51;;;;;;;0.20;0.10;;;10.10;99.90;;;;;;21211619;28;20413;-68
2022/12/06 05:32:54;;;;;;;0.20;0.10;;;10.20;99.90;;;;;;21260938;27;20401;-67
2022/12/06 05:43:00;;;;;;;0.20;0.03;;;10.20;99.90;;;;;;21291883;27;20637;-67
2022/12/06 05:53:04;;;;;;;0.20;0.10;;;10.10;99.90;;;;;;21310308;27;20392;-68
2022/12/06 06:03:10;;;;;;;0.20;0.10;;;10.10;99.90;;;;;;21305893;27;20410;-68
2022/12/06 06:13:13;;;;;;;0.20;0.10;;;10.10;99.90;;;;;;21285992;27;20392;-68
2022/12/06 06:23:19;;;;;;;0.20;0.10;;;10.10;99.90;;;;;;21288156;27;20409;-68
2022/12/06 06:33:23;;;;;;;0.20;0.10;;;10.30;99.90;;;;;;21306961;27;20397;-68
2022/12/06 06:43:29;;;;;;;0.20;0.10;;;10.30;99.90;;;;;;21286319;27;20405;-67
2022/12/06 06:53:33;;;;;;;0.20;0.10;;;10.20;99.90;;;;;;21305859;27;20607;-68
2022/12/06 07:03:38;;;;;;;0.20;0.10;;;10.30;99.90;;;;;;21304127;27;20417;-68
2022/12/06 07:13:43;;;;;;;0.20;0.00;;;10.20;99.90;;;;;;21303838;27;20405;-68
2022/12/06 07:23:56;;;;;;;0.20;0.10;;;10.10;99.90;;;;;;21283927;27;20392;-68
2022/12/06 07:34:01;;;;;;;0.20;0.10;;;10.10;99.90;;;;;;21282270;27;20711;-69
2022/12/06 07:54:28;;;;;;;0.20;0.10;;;9.90;99.90;;;;;;21299546;27;20718;-69
2022/12/06 08:04:34;;;;;;;0.20;0.10;;;9.90;99.90;;;;;;21298254;27;20411;-67
2022/12/06 08:14:39;;;;;;;0.20;0.10;;;9.90;99.90;;;;;;21297032;27;20752;-67
2022/12/06 08:24:45;;;;;;;0.20;0.10;;;10.10;99.90;;;;;;21297266;27;20404;-68
2022/12/06 08:34:48;;;;;;;0.20;0.10;;;10.40;99.90;;;;;;21298398;27;20404;-69
2022/12/06 08:44:53;;;;;;;0.20;0.07;;;10.90;99.90;;;;;;21276952;27;20404;-67
2022/12/06 08:54:57;;;;;;;0.20;0.10;;;11.40;99.90;;;;;;21276985;28;20400;-69
2022/12/06 09:05:02;;;;;;;0.20;0.10;;;11.80;99.90;;;;;;21283591;27;20407;-69
2022/12/06 09:15:07;;;;;;;0.20;0.10;;;12.20;99.90;;;;;;21310364;27;20393;-67
2022/12/06 09:25:12;;;;;;;0.20;0.00;;;12.90;99.90;;;;;;21291821;27;20610;-67
2022/12/06 09:35:16;;;;;;;0.20;0.00;;;13.70;99.90;;;;;;21293798;27;20393;-66
2022/12/06 09:45:50;;;;;;;0.20;0.10;;;14.10;99.90;;;;;;21293935;27;20508;-67
2022/12/06 09:56:05;;;;;;;0.20;0.10;;;14.40;99.90;;;;;;21289939;27;20412;-66
2022/12/06 10:06:14;;;;;;;0.20;0.00;;;14.70;99.90;;;;;;21290662;27;20385;-67
2022/12/06 10:16:31;;;;;;;0.20;0.10;;;15.30;99.90;;;;;;21286517;27;20443;-66
2022/12/06 10:26:48;;;;;;;0.20;0.10;;;15.80;99.90;;;;;;21287417;27;20579;-67
2022/12/06 10:37:01;;;;;;;0.20;0.10;;;16.50;99.90;;;;;;21287688;27;20401;-70
2022/12/06 10:47:14;;;;;;;0.20;0.10;;;16.60;99.90;;;;;;21301448;27;20389;-68
2022/12/06 10:57:22;;;;;;;0.20;0.10;;;16.80;99.90;;;;;;21267250;27;20683;-68
2022/12/06 11:07:32;;;;;;;0.20;0.00;;;16.50;99.90;;;;;;21302539;27;20606;-68
2022/12/06 11:17:42;;;;;;;0.20;0.10;;;17.00;99.90;;;;;;21302018;27;20393;-67
2022/12/06 11:27:52;;;;;;;0.20;0.10;;;16.50;99.90;;;;;;21299932;27;20397;-67
2022/12/06 11:38:01;;;;;;;0.20;0.10;;;16.40;99.90;;;;;;21283841;27;20642;-66
2022/12/06 11:48:13;;;;;;;0.20;0.10;;;16.70;99.90;;;;;;21297060;27;20426;-68
2022/12/06 11:58:25;;;;;;;0.20;0.10;;;16.90;99.90;;;;;;21295521;27;20401;-65
2022/12/06 12:08:30;;;;;;;0.20;0.00;;;16.50;99.90;;;;;;21294113;27;20389;-68
2022/12/06 12:18:38;;;;;;;0.20;0.10;;;16.40;99.90;;;;;;21278327;27;20401;-67
2022/12/06 12:28:45;;;;;;;0.20;0.00;;;17.30;99.90;;;;;;21276292;27;20396;-68
2022/12/06 12:38:55;;;;;;;0.20;0.00;;;17.00;99.90;;;;;;21276370;27;20420;-67
2022/12/06 12:49:23;;;;;;;0.20;0.10;;;16.90;99.90;;;;;;21295738;27;20726;-66
2022/12/06 12:59:28;;;;;;;0.20;0.00;;;16.30;99.90;;;;;;21295488;28;20409;-67
2022/12/06 13:09:50;;;;;;;0.20;0.10;;;15.90;99.90;;;;;;21274530;28;20396;-67
2022/12/06 13:19:54;;;;;;;0.20;0.10;;;16.00;99.90;;;;;;21293734;28;20410;-68
2022/12/06 13:30:04;;;;;;;0.20;0.10;;;16.20;99.90;;;;;;21276239;28;20575;-70
2022/12/06 13:40:47;;;;;;;0.20;0.10;;;16.60;99.90;;;;;;21291931;28;20396;-68
2022/12/06 13:50:54;;;;;;;0.20;0.10;;;16.30;99.90;;;;;;21276335;27;20400;-67
2022/12/06 14:00:57;;;;;;;0.20;0.10;;;17.20;99.90;;;;;;21289927;27;20419;-68
2022/12/06 14:11:18;;;;;;;0.20;0.10;;;16.50;99.90;;;;;;21289474;27;20393;-70
2022/12/06 14:21:27;;;;;;;0.20;0.10;;;17.50;99.90;;;;;;21306026;27;20765;-68
2022/12/06 14:31:39;;;;;;;0.20;0.10;;;17.90;99.90;;;;;;21299880;27;20409;-67
2022/12/06 14:52:23;;;;;;;0.20;0.10;;;15.30;99.90;;;;;;21307489;27;20397;-67
2022/12/06 15:02:30;;;;;;;0.20;0.10;;;15.70;99.90;;;;;;21306492;27;20405;-69
2022/12/06 15:12:55;;;;;;;0.20;0.10;;;16.60;99.90;;;;;;21306385;27;20395;-69
2022/12/06 15:22:59;;;;;;;0.20;0.00;;;16.70;99.90;;;;;;21306127;27;20408;-68
2022/12/06 15:33:04;;;;;;;0.20;0.10;;;17.50;99.90;;;;;;21301692;27;20397;-68
2022/12/06 15:43:25;;;;;;;0.20;0.10;;;16.10;99.90;;;;;;21285251;27;20405;-66
2022/12/06 15:53:30;;;;;;;0.20;0.10;;;15.60;99.90;;;;;;21303314;27;20388;-68
2022/12/06 16:03:34;;;;;;;0.20;0.00;;;15.00;99.90;;;;;;21301589;27;20400;-66
2022/12/06 16:13:39;;;;;;;0.20;0.10;;;14.00;99.90;;;;;;21300536;27;20404;-67
2022/12/06 16:24:03;;;;;;;0.20;0.05;;;13.90;99.90;;;;;;21301152;27;20389;-67
2022/12/06 16:34:17;;;;;;;0.20;0.10;;;13.10;99.90;;;;;;21278869;27;20795;-67
2022/12/06 16:44:21;;;;;;;0.20;0.10;;;12.90;99.90;;;;;;21299102;27;20404;-68
2022/12/06 16:54:26;;;;;;;0.20;0.10;;;12.80;99.90;;;;;;21277150;27;20400;-67
2022/12/06 17:04:30;;;;;;;0.20;0.10;;;12.60;99.90;;;;;;21298854;28;20844;-68
2022/12/06 17:14:37;;;;;;;0.20;0.10;;;12.50;99.90;;;;;;21296368;28;20653;-69
2022/12/06 17:24:41;;;;;;;0.20;0.10;;;12.40;99.90;;;;;;21279271;27;20404;-68
2022/12/06 17:34:47;;;;;;;0.20;0.10;;;12.20;99.90;;;;;;21290826;27;20388;-67
2022/12/06 17:44:51;;;;;;;0.20;0.10;;;12.10;99.90;;;;;;21290367;27;20396;-67
2022/12/06 17:54:56;;;;;;;0.20;0.10;;;11.90;99.90;;;;;;21274249;27;20606;-69
2022/12/06 18:04:59;;;;;;;0.20;0.00;;;11.90;99.90;;;;;;21306340;27;20393;-69
2022/12/06 18:15:36;;;;;;;0.20;0.10;;;12.10;99.90;;;;;;21299895;27;20393;-68
2022/12/06 18:25:30;;;;;;;0.20;0.10;;;12.20;99.90;;;;;;21290285;27;20397;-68
2022/12/06 18:35:36;;;;;;;0.20;0.10;;;12.20;99.90;;;;;;21221497;27;20410;-68
2022/12/06 18:45:41;;;;;;;0.20;0.10;;;12.30;99.90;;;;;;21202883;28;20402;-68
2022/12/06 18:55:47;;;;;;;0.20;0.10;;;12.20;99.90;;;;;;21219813;28;20390;-68
2022/12/06 19:05:51;;;;;;;0.20;0.10;;;12.10;99.90;;;;;;21220413;28;20407;-67
2022/12/06 19:16:07;;;;;;;0.20;0.00;;;11.80;99.90;;;;;;21220661;28;20428;-67
2022/12/06 19:26:12;;;;;;;0.20;0.00;;;11.40;99.90;;;;;;21218459;28;20398;-67
2022/12/06 19:36:19;;;;;;;0.20;0.10;;;11.20;99.90;;;;;;21271379;27;20408;-66
2022/12/06 19:46:25;;;;;;;0.20;0.10;;;11.10;99.90;;;;;;21275757;27;20415;-69
2022/12/06 19:56:31;;;;;;;0.20;0.10;;;11.00;99.90;;;;;;21300473;27;20393;-68
2022/12/06 20:06:35;;;;;;;0.20;0.00;;;10.90;99.90;;;;;;21301988;27;20408;-67
2022/12/06 20:16:41;;;;;;;0.20;0.10;;;10.70;99.90;;;;;;21292609;27;20381;-69
2022/12/06 20:26:48;;;;;;;0.20;0.10;;;10.70;99.90;;;;;;21299515;27;20425;-68
2022/12/06 20:36:53;;;;;;;0.20;0.10;;;10.50;99.90;;;;;;21297955;27;20397;-67
2022/12/06 20:46:56;;;;;;;0.20;0.10;;;10.60;99.90;;;;;;21298579;27;20419;-67
2022/12/06 20:57:07;;;;;;;0.20;0.10;;;10.50;99.90;;;;;;21297417;27;20392;-68
2022/12/06 21:07:10;;;;;;;0.20;0.10;;;10.50;99.90;;;;;;21277510;28;21421;-68
2022/12/06 21:17:16;;;;;;;0.20;0.10;;;10.40;99.90;;;;;;21296286;28;20384;-68
2022/12/06 21:27:19;;;;;;;0.20;0.00;;;10.40;99.90;;;;;;21285986;28;20401;-68
2022/12/06 21:37:25;;;;;;;0.20;0.10;;;10.10;99.90;;;;;;21262802;28;20396;-69
2022/12/06 21:47:29;;;;;;;0.20;0.10;;;9.80;99.90;;;;;;21275499;28;20381;-67
2022/12/06 21:57:35;;;;;;;0.20;0.10;;;9.80;99.90;;;;;;21295783;28;20405;-67
2022/12/06 22:07:39;;;;;;;0.20;0.10;;;9.70;99.90;;;;;;21294863;28;20534;-67
2022/12/06 22:17:44;;;;;;;0.20;0.10;;;9.80;99.90;;;;;;21308293;27;20434;-69
2022/12/06 22:27:48;;;;;;;0.20;0.10;;;9.70;99.90;;;;;;21291304;27;20753;-66
2022/12/06 22:37:53;;;;;;;0.20;0.00;;;9.70;99.90;;;;;;21308961;27;20442;-69
2022/12/06 22:47:57;;;;;;;0.20;0.10;;;9.20;99.90;;;;;;21272244;27;20492;-67
2022/12/06 22:58:02;;;;;;;0.20;0.10;;;9.20;99.90;;;;;;21253267;27;20440;-69
2022/12/06 23:08:06;;;;;;;0.20;0.10;;;9.10;99.90;;;;;;21267805;27;20401;-68
2022/12/06 23:18:11;;;;;;;0.20;0.10;;;9.20;99.90;;;;;;21287107;27;20398;-68
2022/12/06 23:28:15;;;;;;;0.20;0.00;;;9.00;99.90;;;;;;21292834;27;20418;-67
2022/12/06 23:38:20;;;;;;;0.20;0.10;;;9.00;99.90;;;;;;21283556;27;20420;-68
2022/12/06 23:48:24;;;;;;;0.20;0.00;;;9.10;99.90;;;;;;21277257;27;20437;-69
2022/12/06 23:58:29;;;;;;;0.20;0.10;;;9.30;99.90;;;;;;21263102;27;20399;-69
